createdAt,value
2019-05-30T05:11:58.678Z,10.01
2019-05-30T05:21:58.397Z,10.16
2019-05-30T05:31:58.307Z,10.35
2019-05-30T05:41:58.389Z,10.75
2019-05-30T05:51:58.447Z,11.21
2019-05-30T06:01:58.523Z,11.52
2019-05-30T06:11:58.492Z,12.33
2019-05-30T06:21:58.867Z,12.48
2019-05-30T06:31:58.745Z,12.26
2019-05-30T06:41:58.713Z,12.50
2019-05-30T06:51:58.777Z,13.26
2019-05-30T07:01:58.543Z,12.91
2019-05-30T07:11:58.605Z,12.19
2019-05-30T07:21:58.562Z,12.90
2019-05-30T07:31:58.650Z,13.32
2019-05-30T07:42:06.206Z,12.96
2019-05-30T07:51:58.268Z,14.10
2019-05-30T08:01:58.964Z,12.96
2019-05-30T08:11:59.026Z,14.93
2019-05-30T08:21:59.311Z,14.65
2019-05-30T08:32:01.026Z,14.77
2019-05-30T08:41:59.143Z,13.92
2019-05-30T08:51:59.085Z,14.81
2019-05-30T09:01:59.286Z,14.16
2019-05-30T09:11:59.661Z,14.51
2019-05-30T09:21:59.030Z,14.66
2019-05-30T09:31:59.167Z,14.68
2019-05-30T09:41:59.155Z,14.74
2019-05-30T09:51:59.211Z,15.69
2019-05-30T10:01:59.073Z,15.86
2019-05-30T10:11:59.361Z,17.09
2019-05-30T10:21:59.223Z,15.60
2019-05-30T10:31:59.299Z,15.28
2019-05-30T10:41:59.156Z,15.36
2019-05-30T10:51:59.541Z,15.00
2019-05-30T11:01:58.985Z,15.74
2019-05-30T11:11:59.053Z,15.35
2019-05-30T11:21:59.239Z,16.03
2019-05-30T11:31:59.149Z,16.21
2019-05-30T11:41:59.516Z,16.25
2019-05-30T11:51:59.984Z,15.96
2019-05-30T12:02:00.455Z,15.62
2019-05-30T12:11:59.288Z,17.04
2019-05-30T12:21:59.887Z,16.30
2019-05-30T12:32:00.663Z,16.14
2019-05-30T12:41:59.098Z,16.01
2019-05-30T12:52:00.500Z,17.68
2019-05-30T13:01:59.107Z,16.14
2019-05-30T13:12:00.237Z,16.59
2019-05-30T13:21:59.353Z,15.78
2019-05-30T13:32:02.543Z,16.51
2019-05-30T13:41:59.574Z,15.88
2019-05-30T13:52:00.757Z,16.94
2019-05-30T14:01:59.819Z,15.78
2019-05-30T14:12:00.332Z,16.96
2019-05-30T14:22:01.069Z,16.83
2019-05-30T14:31:59.030Z,16.79
2019-05-30T14:41:59.223Z,17.55
2019-05-30T14:51:59.600Z,17.29
2019-05-30T15:01:58.869Z,17.03
2019-05-30T15:11:58.285Z,16.81
2019-05-30T15:21:58.875Z,16.83
2019-05-30T15:31:58.543Z,17.25
2019-05-30T15:41:58.715Z,16.89
2019-05-30T15:51:58.467Z,17.68
2019-05-30T16:01:58.238Z,17.52
2019-05-30T16:11:58.473Z,18.01
2019-05-30T16:21:58.369Z,17.45
2019-05-30T16:31:58.375Z,17.83
2019-05-30T16:41:58.410Z,16.59
2019-05-30T16:51:58.381Z,16.99
2019-05-30T17:01:58.701Z,16.68
2019-05-30T17:11:59.447Z,17.33
2019-05-30T17:21:58.595Z,17.22
2019-05-30T17:31:58.883Z,17.64
2019-05-30T17:41:58.747Z,17.42
2019-05-30T17:51:58.620Z,17.53
2019-05-30T18:02:00.884Z,17.24
2019-05-30T18:11:58.743Z,17.70
2019-05-30T18:21:58.699Z,17.76
2019-05-30T18:31:59.289Z,17.60
2019-05-30T18:41:59.055Z,17.99
2019-05-30T18:51:58.727Z,17.65
2019-05-30T19:01:58.691Z,17.86
